Hovedside
METAR-TAF:

METAR-TAF

Lufthavner :

Liepāja internasjonale lufthavn

Liepāja, Latvia

breddegrad: 56-31N, lengdegrad: 021-05E, høyde over havet: 5 m

Gjeldene værobservasjon

Denne rapporten ble laget for 25 minutter siden, klokken 16:20 UTC
Vind 6 kt fra Nordøst
Temperatur -1°C
Luftfuktighet 100%
Trykk 1030 hPa
Sikt 10 km eller mer

METAR: EVLA 201620Z AUTO 05006KT 9999 OVC004/// M01/M01 Q1030

Tid: 18:45 (16:45 UTC)

Varsel

Denne rapporten ble laget for 2 timer og 42 minutter siden, klokken 14:03 UTC
Varsel gyldig fra 20. klokken 15 UTC til 21. klokken 15 UTC
Vind 7 kt fra Øst
Sikt 10 km eller mer
Overskyet i en høyde av 500 ft
Midlertidig
fra 20. klokken 15 UTC til 20. klokken 18 UTC
Sikt: 3000 m
Brutte skyer i en høyde av 1000 ft
dis
Midlertidig
fra 21. klokken 00 UTC til 21. klokken 06 UTC
Sikt: 0700 m
Brutte skyer i en høyde av 200 ft
underkjølt tåke

TAF: EVLA 201403Z 2015/2115 09007KT 9999 OVC005 TEMPO 2015/2018 3000 BR BKN010 TEMPO 2100/2106 0700 FZFG BKN002

Værobservasjoner og værvarsel for over 4000 flyplasser (METAR- og TAF-rapporter).

Tilgjengelige stasjoner er representert av de røde og gule prikkene på kartet.

Hold musepekeren over prikken for å se navnet på stasjonen.

Klikk så for å se værobservasjoner og -varsler.

For å forandre kartet kan du klikke på den grønne knappen med svart kryss for å zoome inn, på den grønne knappen med strek for å zoome ut, eller på de grønne pilene for å se tilstøtende kart.


METAR-TAF: